Alaska — SYDS — position and weather

sailwx.info

Track history (hours):
 
Tides and Currents Weather Stations Pressure Air Temp Water Temp Dewpoint Dewpoint Depression Visibility Wind Speed Wind Dir Waves Ship Positions

Alaska

Last reported at 2016-Jul-03 11:09 UTC. Time now 2016-Jul-29 03:58 UTC.
Position N 17°39' W 061°03'.
Warning: this ship's position is 25 days out of date.

Length 274 m; draft 9.1 m.

Type: Other ship. MMSI: 240472000.

Date/timePositionNaut miles runAvg speedWind from/ knotsBaromVisibWave heightAir tempDewpointWater temp
2016-Jul-03 11:09N 17°39' W 061°03'712.3
2016-Jul-03 10:33N 17°42' W 061°10'1212.3
2016-Jul-03 09:33N 17°45' W 061°22'1312.8
2016-Jul-03 08:33N 17°49' W 061°35'1312.8
2016-Jul-03 07:33N 17°50' W 061°49'1312.7
2016-Jul-03 06:33N 17°51' W 062°02'1212.5
2016-Jul-03 05:33N 17°49' W 062°15'1313.0
2016-Jul-03 04:33N 17°44' W 062°28'3013.0
2016-Jul-03 02:15N 17°36' W 062°58'911.3
2016-Jul-03 01:30N 17°33' W 063°06'3 0.2
2016-Jul-02 08:25N 17°31' W 063°03'1012.1
2016-Jul-02 07:33N 17°40' W 063°09'1413.3
2016-Jul-02 06:32N 17°52' W 063°17'2713.5
2016-Jul-02 04:33N 18°14' W 063°32'  
Track history (hours):
 
Tides and Currents Weather Stations Pressure Air Temp Water Temp Dewpoint Dewpoint Depression Visibility Wind Speed Wind Dir Waves Ship Positions

Alaska

Last reported at 2016-Jul-03 11:09 UTC. Time now 2016-Jul-29 03:58 UTC.
Position N 17°39' W 061°03'.
Warning: this ship's position is 25 days out of date.

Length 274 m; draft 9.1 m.

Type: Other ship. MMSI: 240472000.

Date/timePositionNaut miles runAvg speedWind from/ knotsBaromVisibWave heightAir tempDewpointWater temp
2016-Jul-03 11:09N 17°39' W 061°03'712.3
2016-Jul-03 10:33N 17°42' W 061°10'1212.3
2016-Jul-03 09:33N 17°45' W 061°22'1312.8
2016-Jul-03 08:33N 17°49' W 061°35'1312.8
2016-Jul-03 07:33N 17°50' W 061°49'1312.7
2016-Jul-03 06:33N 17°51' W 062°02'1212.5
2016-Jul-03 05:33N 17°49' W 062°15'1313.0
2016-Jul-03 04:33N 17°44' W 062°28'3013.0
2016-Jul-03 02:15N 17°36' W 062°58'911.3
2016-Jul-03 01:30N 17°33' W 063°06'3 0.2
2016-Jul-02 08:25N 17°31' W 063°03'1012.1
2016-Jul-02 07:33N 17°40' W 063°09'1413.3
2016-Jul-02 06:32N 17°52' W 063°17'2713.5
2016-Jul-02 04:33N 18°14' W 063°32'  

Dump ship's entire track history